Terminal Aerodrome Forecast
Issued by NWS

Home | Current Version | Previous Version | Text Only | Print | Product List | Glossary On
Versions: 1 2 3 4 5 6 7 8 9 10 11 12 13 14 15
000
FTUS42 TJSJ 232300
TAFNCM
TAF
TNCM 232320Z 2400/2424 09015KT P6SM VCSH SCT019
     FM241500 09017G25KT P6SM FEW020
     FM242300 09008KT P6SM FEW020=

USA.gov is the U.S. government's official web portal to all federal, state and local government web resources and services.